Rotterdam — PDGS — position and weather

sailwx.info

Track history (hours):
 
Tides and Currents Weather Stations Pressure Air Temp Water Temp Dewpoint Dewpoint Depression Visibility Wind Speed Wind Dir Waves Ship Positions

Rotterdam

Operator: Holland America Line

Last reported at 2017-May-29 16:30 UTC. Time now 2017-May-29 16:54 UTC.
Position N 59°34' E 004°54'.

Length 228 m; beam 29 m.

Type: Ship. MMSI: 24616700.

Date/timePositionNaut miles runAvg speedWind from/ knotsBaromVisibWave heightAir tempDewpointWater temp
2017-May-29 16:30N 59°34' E 004°54'815.8
2017-May-29 16:00N 59°26' E 004°56'815.5
2017-May-29 15:30N 59°18' E 004°59'815.2
2017-May-29 15:00N 59°11' E 005°02'713.5
2017-May-29 14:30N 59°07' E 005°12'1414.2
2017-May-29 13:30N 59°02' E 005°38'4 8.2
2017-May-29 13:00N 58°58' E 005°44'0 0.0
2017-May-29 12:30N 58°58' E 005°44'0 0.0
2017-May-29 12:00N 58°58' E 005°44'0 0.0
2017-May-29 11:30N 58°58' E 005°44'0 0.0
2017-May-29 11:00N 58°58' E 005°44'0 0.0
2017-May-29 10:30N 58°58' E 005°44'0 0.0
2017-May-29 10:00N 58°58' E 005°44'0 0.0
2017-May-29 09:30N 58°58' E 005°44'0 0.0
2017-May-29 09:00N 58°58' E 005°44'0 0.0
2017-May-29 08:30N 58°58' E 005°44'0 0.0
2017-May-29 08:00N 58°58' E 005°44'0 0.0
2017-May-29 07:30N 58°58' E 005°44'0 0.0
2017-May-29 07:00N 58°58' E 005°44'0 0.0
2017-May-29 06:30N 58°58' E 005°44'0 0.0
2017-May-29 06:00N 58°58' E 005°44'0 0.0
2017-May-29 05:30N 58°58' E 005°44'0 0.0
2017-May-29 05:00N 58°58' E 005°44'0 0.7
2017-May-29 04:30N 58°59' E 005°43'5 9.1
2017-May-29 04:01N 59°02' E 005°37'3 6.2
2017-May-29 03:31N 58°60' E 005°33'815.2
2017-May-29 03:01N 58°52' E 005°31'612.0
2017-May-29 02:30N 58°48' E 005°23'612.9
2017-May-29 02:01N 58°43' E 005°16'612.4
2017-May-29 01:31N 58°37' E 005°11'612.6
2017-May-29 01:01N 58°31' E 005°08'612.4
2017-May-29 00:30N 58°25' E 005°08'812.5
2017-May-28 23:51N 58°17' E 005°09'30312.4
2017-May-27 23:30N 53°14' E 004°34'812.5
2017-May-27 22:53N 53°07' E 004°29'512.6
2017-May-27 22:30N 53°03' E 004°25'612.5
2017-May-27 22:00N 52°58' E 004°19'612.5
2017-May-27 21:30N 52°52' E 004°15'612.7
2017-May-27 21:00N 52°47' E 004°09'612.7
2017-May-27 20:30N 52°42' E 004°03'612.3
2017-May-27 20:00N 52°36' E 003°59'612.2
2017-May-27 19:30N 52°30' E 003°55'612.8
2017-May-27 19:00N 52°24' E 003°53'612.4
2017-May-27 18:30N 52°18' E 003°52'612.2
2017-May-27 18:00N 52°12' E 003°54'612.3
2017-May-27 17:30N 52°06' E 003°55'510.3
2017-May-27 17:00N 52°01' E 003°59'612.7
2017-May-27 16:30N 51°58' E 004°08'510.8
2017-May-27 16:00N 51°55' E 004°15'4 8.2
2017-May-27 15:30N 51°54' E 004°21'3 7.0
2017-May-27 15:00N 51°54' E 004°27'1 3.0
2017-May-27 14:31N 51°54' E 004°29'0 0.0
2017-May-27 13:28N 51°54' E 004°29'0 0.0
2017-May-27 12:58N 51°54' E 004°29'0 0.0
2017-May-27 12:28N 51°54' E 004°29'0 0.0
2017-May-27 11:58N 51°54' E 004°29'0 0.0
2017-May-27 11:28N 51°54' E 004°29'0 0.0
2017-May-27 10:58N 51°54' E 004°29'0 0.0
2017-May-27 10:25N 51°54' E 004°29'0 0.0
2017-May-27 09:58N 51°54' E 004°29'0 0.0
2017-May-27 09:28N 51°54' E 004°29'0 0.0
2017-May-27 08:58N 51°54' E 004°29'0 0.0
2017-May-27 08:28N 51°54' E 004°29'0 0.0
2017-May-27 07:58N 51°54' E 004°29'0 0.0
2017-May-27 07:28N 51°54' E 004°29'0 0.1
2017-May-27 06:58N 51°54' E 004°29'0 0.1
2017-May-27 06:28N 51°54' E 004°29'0 0.0
2017-May-27 05:58N 51°54' E 004°29'0 0.0
2017-May-27 05:28N 51°54' E 004°29'0 0.0
2017-May-27 04:58N 51°54' E 004°29'1 2.3
2017-May-27 04:30N 51°54' E 004°28'4 7.7
2017-May-27 04:01N 51°54' E 004°21'5 9.1
2017-May-27 03:30N 51°55' E 004°14'713.4
2017-May-27 03:00N 51°59' E 004°05'816.9
2017-May-27 02:31N 52°00' E 003°52'4 8.3
2017-May-27 02:00N 52°03' E 003°46'611.2
2017-May-27 01:30N 52°08' E 003°46'714.4
2017-May-27 01:00N 52°15' E 003°47'714.6
2017-May-27 00:30N 52°23' E 003°49'714.7
2017-May-27 00:00N 52°30' E 003°51'715.0
2017-May-26 23:30N 52°37' E 003°53'815.0
2017-May-26 22:58N 52°45' E 003°54'2714.7
2017-May-26 21:08N 53°08' E 004°18'214.8
2017-May-26 21:00N 53°09' E 004°20'815.3
2017-May-26 20:30N 53°16' E 004°27'815.4
2017-May-26 20:00N 53°23' E 004°31'714.5
2017-May-26 19:30N 53°30' E 004°35'815.5
2017-May-26 19:00N 53°37' E 004°39'815.1
2017-May-26 18:29N 53°45' E 004°43'32215.3
2017-May-25 21:26N 58°19' E 009°45'615.3
2017-May-25 21:00N 58°24' E 009°53'816.4
2017-May-25 20:30N 58°30' E 010°02'815.6
2017-May-25 20:00N 58°37' E 010°11'815.0
2017-May-25 19:30N 58°43' E 010°20'815.1
2017-May-25 19:00N 58°49' E 010°28'714.2
2017-May-25 18:31N 58°55' E 010°34'815.3
2017-May-25 18:01N 59°03' E 010°35'714.1
2017-May-25 17:31N 59°10' E 010°38'816.7
2017-May-25 17:01N 59°18' E 010°35'816.7
2017-May-25 16:31N 59°26' E 010°33'815.7
2017-May-25 16:00N 59°34' E 010°38'613.0
2017-May-25 15:31N 59°40' E 010°37'611.1
2017-May-25 15:00N 59°46' E 010°33'1010.1
2017-May-25 14:00N 59°54' E 010°44'0 0.0
2017-May-25 13:30N 59°54' E 010°44'0 0.0
2017-May-25 13:00N 59°54' E 010°44'0 0.0
2017-May-25 12:30N 59°54' E 010°44'0 0.0
2017-May-25 12:00N 59°54' E 010°44'0 0.0
2017-May-25 11:30N 59°54' E 010°44'0 0.0
2017-May-25 11:00N 59°54' E 010°44'0 0.0
2017-May-25 10:30N 59°54' E 010°44'0 0.0
2017-May-25 10:00N 59°54' E 010°44'0 0.0
2017-May-25 09:30N 59°54' E 010°44'0 0.0
2017-May-25 09:00N 59°54' E 010°44'0 0.0
2017-May-25 08:30N 59°54' E 010°44'0 0.0
2017-May-25 08:00N 59°54' E 010°44'0 0.0
2017-May-25 07:30N 59°54' E 010°44'0 0.0
2017-May-25 07:00N 59°54' E 010°44'0 0.0
2017-May-25 06:30N 59°54' E 010°44'0 0.0
2017-May-25 06:00N 59°54' E 010°44'0 0.0
2017-May-25 05:30N 59°54' E 010°44'2 3.7
2017-May-25 05:00N 59°53' E 010°41'613.2
2017-May-25 04:31N 59°48' E 010°35'713.2
2017-May-25 04:01N 59°41' E 010°36'611.9
2017-May-25 03:30N 59°35' E 010°38'613.0
2017-May-25 03:00N 59°29' E 010°35'917.2
2017-May-25 02:30N 59°20' E 010°36'917.3
2017-May-25 02:00N 59°12' E 010°39'715.0
2017-May-25 01:30N 59°05' E 010°35'510.0
2017-May-25 01:00N 58°60' E 010°34'510.9
2017-May-25 00:30N 58°56' E 010°27'611.1
2017-May-25 00:00N 58°52' E 010°20'611.5
2017-May-24 23:30N 58°47' E 010°13'611.2
2017-May-24 23:00N 58°43' E 010°06'510.9
2017-May-24 22:30N 58°39' E 009°60'1810.6
2017-May-24 20:47N 58°25' E 009°37'310.3
2017-May-24 20:30N 58°23' E 009°32'610.5
2017-May-24 19:56N 58°20' E 009°22'510.5
2017-May-24 19:29N 58°18' E 009°14'511.3
2017-May-24 19:00N 58°15' E 009°05'511.0
2017-May-24 18:30N 58°13' E 008°56'510.6
2017-May-24 18:00N 58°10' E 008°47'510.4
2017-May-24 17:30N 58°08' E 008°38'510.4
2017-May-24 17:00N 58°05' E 008°30'510.2
2017-May-24 16:30N 58°03' E 008°21'510.2
2017-May-24 15:59N 58°03' E 008°11'5 9.6
2017-May-24 15:30N 58°05' E 008°03'4 7.3
2017-May-24 15:00N 58°08' E 007°59'0 0.2
2017-May-24 14:30N 58°08' E 007°60'0 0.0
2017-May-24 13:30N 58°08' E 007°60'0 0.0
2017-May-24 13:00N 58°08' E 007°60'0 0.0
2017-May-24 12:30N 58°08' E 007°60'0 0.0
2017-May-24 12:00N 58°08' E 007°60'0 0.0
2017-May-24 11:30N 58°08' E 007°60'0 0.0
2017-May-24 11:00N 58°08' E 007°60'0 0.0
2017-May-24 10:30N 58°08' E 007°60'0 0.0
2017-May-24 10:00N 58°08' E 007°60'0 0.0
2017-May-24 09:30N 58°08' E 007°60'0 0.0
2017-May-24 09:00N 58°08' E 007°60'0 0.0
2017-May-24 08:30N 58°08' E 007°60'0 0.0
2017-May-24 08:00N 58°08' E 007°60'0 0.0
2017-May-24 07:30N 58°08' E 007°60'0 0.0
2017-May-24 07:00N 58°08' E 007°60'0 0.0
2017-May-24 06:30N 58°08' E 007°60'0 0.0
2017-May-24 06:00N 58°08' E 007°60'0 0.0
2017-May-24 05:30N 58°08' E 007°60'1 1.2
2017-May-24 04:59N 58°08' E 007°60'510.8
2017-May-24 04:30N 58°03' E 008°05'510.2
2017-May-24 04:00N 58°00' E 007°57'612.7
2017-May-24 03:30N 57°56' E 007°48'612.5
2017-May-24 03:00N 57°53' E 007°38'612.0
2017-May-24 02:30N 57°52' E 007°27'612.2
2017-May-24 02:00N 57°52' E 007°15'612.3
2017-May-24 01:30N 57°52' E 007°04'612.4
2017-May-24 01:00N 57°53' E 006°52'612.5
2017-May-24 00:29N 57°53' E 006°40'612.1
2017-May-24 00:00N 57°54' E 006°29'612.4
2017-May-23 23:30N 57°54' E 006°17'612.1
2017-May-23 22:59N 57°57' E 006°07'612.8
2017-May-23 22:30N 58°01' E 005°58'1412.4
2017-May-23 21:23N 58°10' E 005°38'512.4
2017-May-23 21:00N 58°13' E 005°31'1312.1
2017-May-23 19:57N 58°21' E 005°14'812.4
2017-May-23 19:19N 58°29' E 005°15'412.8
2017-May-23 19:00N 58°33' E 005°15'612.5
2017-May-23 18:30N 58°40' E 005°16'612.7
2017-May-23 18:01N 58°46' E 005°17'612.5
2017-May-23 17:30N 58°50' E 005°26'510.3
2017-May-23 17:00N 58°54' E 005°32'815.6
2017-May-23 16:30N 59°02' E 005°33'5 9.7
2017-May-23 16:00N 59°00' E 005°41'2 3.5
2017-May-23 15:29N 58°59' E 005°43'0 0.0
2017-May-23 14:59N 58°59' E 005°43'0 0.0
2017-May-23 14:29N 58°59' E 005°43'0 0.0
2017-May-23 13:29N 58°59' E 005°43'0 0.0
2017-May-23 12:59N 58°59' E 005°43'0 0.0
2017-May-23 12:29N 58°59' E 005°43'0 0.0
2017-May-23 11:59N 58°59' E 005°43'0 0.0
2017-May-23 11:29N 58°59' E 005°43'0 0.0
2017-May-23 10:59N 58°59' E 005°43'0 0.0
2017-May-23 10:29N 58°59' E 005°43'0 0.0
2017-May-23 09:59N 58°59' E 005°43'0 0.0
2017-May-23 09:29N 58°59' E 005°43'0 0.0
2017-May-23 08:59N 58°59' E 005°43'0 0.0
2017-May-23 08:29N 58°59' E 005°43'0 0.0
2017-May-23 07:59N 58°59' E 005°43'0 0.0
2017-May-23 07:30N 58°59' E 005°43'1 2.2
2017-May-23 07:01N 58°59' E 005°42'5 9.7
2017-May-23 06:30N 59°03' E 005°35'714.0
2017-May-23 06:00N 59°07' E 005°24'714.8
2017-May-23 05:31N 59°07' E 005°10'714.9
2017-May-23 05:01N 59°09' E 004°56'816.0
2017-May-23 04:30N 59°16' E 004°48'6615.9
2017-May-23 00:19N 60°21' E 004°26'516.6
2017-May-23 00:00N 60°26' E 004°25'816.0
2017-May-22 23:30N 60°34' E 004°24'815.8
2017-May-22 23:00N 60°42' E 004°23'714.8
2017-May-22 22:30N 60°50' E 004°25'815.5
2017-May-22 22:00N 60°53' E 004°40'714.6
2017-May-22 21:30N 60°59' E 004°45'817.0
2017-May-22 21:00N 61°04' E 004°60'816.2
2017-May-22 20:30N 61°05' E 005°17'815.9
2017-May-22 19:59N 61°06' E 005°33'917.6
2017-May-22 19:30N 61°08' E 005°50'917.6
2017-May-22 18:59N 61°08' E 006°09'917.5
2017-May-22 18:30N 61°06' E 006°26'816.5
2017-May-22 18:00N 61°11' E 006°39'917.0
2017-May-22 17:30N 61°07' E 006°55'916.9
2017-May-22 17:00N 60°60' E 007°04'611.6
2017-May-22 16:30N 60°55' E 007°10'3 5.6
2017-May-22 16:00N 60°52' E 007°08'0 0.2
2017-May-22 15:30N 60°52' E 007°08'0 0.1
2017-May-22 15:00N 60°52' E 007°08'0 0.0
2017-May-22 14:00N 60°52' E 007°08'0 0.0
2017-May-22 13:30N 60°52' E 007°08'0 0.0
2017-May-22 13:00N 60°52' E 007°08'0 0.0
2017-May-22 12:30N 60°52' E 007°08'0 0.0
2017-May-22 12:00N 60°52' E 007°08'0 0.0
2017-May-22 11:30N 60°52' E 007°08'0 0.0
2017-May-22 11:00N 60°52' E 007°08'0 0.0
2017-May-22 10:30N 60°52' E 007°08'0 0.0
2017-May-22 10:00N 60°52' E 007°08'0 0.1
2017-May-22 09:30N 60°52' E 007°08'0 0.0
2017-May-22 09:00N 60°52' E 007°08'0 0.0
2017-May-22 08:30N 60°52' E 007°08'0 0.0
2017-May-22 08:00N 60°52' E 007°08'0 0.0
2017-May-22 07:30N 60°52' E 007°08'0 0.0
2017-May-22 07:00N 60°52' E 007°08'0 0.0
2017-May-22 06:30N 60°52' E 007°08'0 0.1
2017-May-22 06:00N 60°52' E 007°08'0 0.1
2017-May-22 05:30N 60°52' E 007°08'0 0.1
2017-May-22 05:00N 60°52' E 007°08'4 8.8
2017-May-22 04:30N 60°57' E 007°10'612.5
2017-May-22 04:00N 61°02' E 007°02'815.3
2017-May-22 03:30N 61°08' E 006°54'815.5
2017-May-22 03:00N 61°11' E 006°39'715.1
2017-May-22 02:30N 61°06' E 006°27'816.8
2017-May-22 02:00N 61°08' E 006°10'917.0
2017-May-22 01:30N 61°08' E 005°52'817.1
2017-May-22 01:00N 61°06' E 005°36'816.2
2017-May-22 00:30N 61°04' E 005°19'816.5
2017-May-22 00:00N 61°04' E 005°02'918.6
2017-May-21 23:30N 60°59' E 004°46'815.9
2017-May-21 23:00N 60°52' E 004°39'714.0
2017-May-21 22:30N 60°48' E 004°28'1019.0
2017-May-21 22:00N 60°38' E 004°24'11218.3
2017-May-21 15:52N 58°46' E 004°18'718.0
2017-May-21 15:30N 58°40' E 004°22'918.1
2017-May-21 15:00N 58°32' E 004°27'1118.4
2017-May-21 14:26N 58°21' E 004°32'31317.7
2017-May-20 20:47N 53°09' E 004°28'918.4
2017-May-20 20:17N 53°00' E 004°21'518.1
2017-May-20 20:00N 52°56' E 004°17'918.0
2017-May-20 19:30N 52°48' E 004°09'917.6
2017-May-20 19:00N 52°41' E 004°02'917.3
2017-May-20 18:30N 52°33' E 003°56'917.3
2017-May-20 18:00N 52°24' E 003°53'917.0
2017-May-20 17:30N 52°16' E 003°53'817.1
2017-May-20 17:00N 52°08' E 003°55'611.4
2017-May-20 16:30N 52°02' E 003°55'714.5
2017-May-20 16:00N 51°59' E 004°06'611.6
2017-May-20 15:30N 51°55' E 004°14'5 9.1
2017-May-20 15:00N 51°54' E 004°21'5 5.3
2017-May-20 14:00N 51°54' E 004°29'0 0.0
2017-May-20 13:30N 51°54' E 004°29'0 0.0
2017-May-20 12:59N 51°54' E 004°29'0 0.0
2017-May-20 12:30N 51°54' E 004°29'0 0.0
2017-May-20 12:00N 51°54' E 004°29'0 0.0
2017-May-20 11:30N 51°54' E 004°29'0 0.0
2017-May-20 11:00N 51°54' E 004°29'0 0.0
2017-May-20 10:30N 51°54' E 004°29'0 0.0
2017-May-20 10:00N 51°54' E 004°29'0 0.0
2017-May-20 09:30N 51°54' E 004°29'0 0.0
2017-May-20 08:57N 51°54' E 004°29'0 0.0
2017-May-20 08:30N 51°54' E 004°29'0 0.0
2017-May-20 08:00N 51°54' E 004°29'0 0.1
2017-May-20 07:30N 51°54' E 004°29'0 0.1
2017-May-20 07:00N 51°54' E 004°29'0 0.0
2017-May-20 06:30N 51°54' E 004°29'0 0.0
2017-May-20 06:00N 51°54' E 004°29'0 0.0
2017-May-20 05:29N 51°54' E 004°29'0 0.0
2017-May-20 04:59N 51°54' E 004°29'0 0.5
2017-May-20 04:31N 51°54' E 004°29'3 5.9
2017-May-20 04:01N 51°54' E 004°24'4 8.1
2017-May-20 03:30N 51°54' E 004°17'510.3
2017-May-20 03:00N 51°57' E 004°11'612.7
2017-May-20 02:31N 51°60' E 004°01'815.1
2017-May-20 02:01N 52°01' E 003°49'612.0
2017-May-20 01:30N 52°07' E 003°46'815.7
2017-May-20 01:00N 52°15' E 003°46'816.0
2017-May-20 00:30N 52°23' E 003°49'815.9
2017-May-20 00:00N 52°30' E 003°52'816.0
2017-May-19 23:30N 52°38' E 003°54'816.0
2017-May-19 23:00N 52°46' E 003°56'1115.7
2017-May-19 22:17N 52°57' E 004°00'515.6
2017-May-19 21:58N 53°00' E 004°07'  
Track history (hours):
 
Tides and Currents Weather Stations Pressure Air Temp Water Temp Dewpoint Dewpoint Depression Visibility Wind Speed Wind Dir Waves Ship Positions

Rotterdam

Operator: Holland America Line

Last reported at 2017-May-29 16:30 UTC. Time now 2017-May-29 16:54 UTC.
Position N 59°34' E 004°54'.

Length 228 m; beam 29 m.

Type: Ship. MMSI: 24616700.

Date/timePositionNaut miles runAvg speedWind from/ knotsBaromVisibWave heightAir tempDewpointWater temp
2017-May-29 16:30N 59°34' E 004°54'815.8
2017-May-29 16:00N 59°26' E 004°56'815.5
2017-May-29 15:30N 59°18' E 004°59'815.2
2017-May-29 15:00N 59°11' E 005°02'713.5
2017-May-29 14:30N 59°07' E 005°12'1414.2
2017-May-29 13:30N 59°02' E 005°38'4 8.2
2017-May-29 13:00N 58°58' E 005°44'0 0.0
2017-May-29 12:30N 58°58' E 005°44'0 0.0
2017-May-29 12:00N 58°58' E 005°44'0 0.0
2017-May-29 11:30N 58°58' E 005°44'0 0.0
2017-May-29 11:00N 58°58' E 005°44'0 0.0
2017-May-29 10:30N 58°58' E 005°44'0 0.0
2017-May-29 10:00N 58°58' E 005°44'0 0.0
2017-May-29 09:30N 58°58' E 005°44'0 0.0
2017-May-29 09:00N 58°58' E 005°44'0 0.0
2017-May-29 08:30N 58°58' E 005°44'0 0.0
2017-May-29 08:00N 58°58' E 005°44'0 0.0
2017-May-29 07:30N 58°58' E 005°44'0 0.0
2017-May-29 07:00N 58°58' E 005°44'0 0.0
2017-May-29 06:30N 58°58' E 005°44'0 0.0
2017-May-29 06:00N 58°58' E 005°44'0 0.0
2017-May-29 05:30N 58°58' E 005°44'0 0.0
2017-May-29 05:00N 58°58' E 005°44'0 0.7
2017-May-29 04:30N 58°59' E 005°43'5 9.1
2017-May-29 04:01N 59°02' E 005°37'3 6.2
2017-May-29 03:31N 58°60' E 005°33'815.2
2017-May-29 03:01N 58°52' E 005°31'612.0
2017-May-29 02:30N 58°48' E 005°23'612.9
2017-May-29 02:01N 58°43' E 005°16'612.4
2017-May-29 01:31N 58°37' E 005°11'612.6
2017-May-29 01:01N 58°31' E 005°08'612.4
2017-May-29 00:30N 58°25' E 005°08'812.5
2017-May-28 23:51N 58°17' E 005°09'30312.4
2017-May-27 23:30N 53°14' E 004°34'812.5
2017-May-27 22:53N 53°07' E 004°29'512.6
2017-May-27 22:30N 53°03' E 004°25'612.5
2017-May-27 22:00N 52°58' E 004°19'612.5
2017-May-27 21:30N 52°52' E 004°15'612.7
2017-May-27 21:00N 52°47' E 004°09'612.7
2017-May-27 20:30N 52°42' E 004°03'612.3
2017-May-27 20:00N 52°36' E 003°59'612.2
2017-May-27 19:30N 52°30' E 003°55'612.8
2017-May-27 19:00N 52°24' E 003°53'612.4
2017-May-27 18:30N 52°18' E 003°52'612.2
2017-May-27 18:00N 52°12' E 003°54'612.3
2017-May-27 17:30N 52°06' E 003°55'510.3
2017-May-27 17:00N 52°01' E 003°59'612.7
2017-May-27 16:30N 51°58' E 004°08'510.8
2017-May-27 16:00N 51°55' E 004°15'4 8.2
2017-May-27 15:30N 51°54' E 004°21'3 7.0
2017-May-27 15:00N 51°54' E 004°27'1 3.0
2017-May-27 14:31N 51°54' E 004°29'0 0.0
2017-May-27 13:28N 51°54' E 004°29'0 0.0
2017-May-27 12:58N 51°54' E 004°29'0 0.0
2017-May-27 12:28N 51°54' E 004°29'0 0.0
2017-May-27 11:58N 51°54' E 004°29'0 0.0
2017-May-27 11:28N 51°54' E 004°29'0 0.0
2017-May-27 10:58N 51°54' E 004°29'0 0.0
2017-May-27 10:25N 51°54' E 004°29'0 0.0
2017-May-27 09:58N 51°54' E 004°29'0 0.0
2017-May-27 09:28N 51°54' E 004°29'0 0.0
2017-May-27 08:58N 51°54' E 004°29'0 0.0
2017-May-27 08:28N 51°54' E 004°29'0 0.0
2017-May-27 07:58N 51°54' E 004°29'0 0.0
2017-May-27 07:28N 51°54' E 004°29'0 0.1
2017-May-27 06:58N 51°54' E 004°29'0 0.1
2017-May-27 06:28N 51°54' E 004°29'0 0.0
2017-May-27 05:58N 51°54' E 004°29'0 0.0
2017-May-27 05:28N 51°54' E 004°29'0 0.0
2017-May-27 04:58N 51°54' E 004°29'1 2.3
2017-May-27 04:30N 51°54' E 004°28'4 7.7
2017-May-27 04:01N 51°54' E 004°21'5 9.1
2017-May-27 03:30N 51°55' E 004°14'713.4
2017-May-27 03:00N 51°59' E 004°05'816.9
2017-May-27 02:31N 52°00' E 003°52'4 8.3
2017-May-27 02:00N 52°03' E 003°46'611.2
2017-May-27 01:30N 52°08' E 003°46'714.4
2017-May-27 01:00N 52°15' E 003°47'714.6
2017-May-27 00:30N 52°23' E 003°49'714.7
2017-May-27 00:00N 52°30' E 003°51'715.0
2017-May-26 23:30N 52°37' E 003°53'815.0
2017-May-26 22:58N 52°45' E 003°54'2714.7
2017-May-26 21:08N 53°08' E 004°18'214.8
2017-May-26 21:00N 53°09' E 004°20'815.3
2017-May-26 20:30N 53°16' E 004°27'815.4
2017-May-26 20:00N 53°23' E 004°31'714.5
2017-May-26 19:30N 53°30' E 004°35'815.5
2017-May-26 19:00N 53°37' E 004°39'815.1
2017-May-26 18:29N 53°45' E 004°43'32215.3
2017-May-25 21:26N 58°19' E 009°45'615.3
2017-May-25 21:00N 58°24' E 009°53'816.4
2017-May-25 20:30N 58°30' E 010°02'815.6
2017-May-25 20:00N 58°37' E 010°11'815.0
2017-May-25 19:30N 58°43' E 010°20'815.1
2017-May-25 19:00N 58°49' E 010°28'714.2
2017-May-25 18:31N 58°55' E 010°34'815.3
2017-May-25 18:01N 59°03' E 010°35'714.1
2017-May-25 17:31N 59°10' E 010°38'816.7
2017-May-25 17:01N 59°18' E 010°35'816.7
2017-May-25 16:31N 59°26' E 010°33'815.7
2017-May-25 16:00N 59°34' E 010°38'613.0
2017-May-25 15:31N 59°40' E 010°37'611.1
2017-May-25 15:00N 59°46' E 010°33'1010.1
2017-May-25 14:00N 59°54' E 010°44'0 0.0
2017-May-25 13:30N 59°54' E 010°44'0 0.0
2017-May-25 13:00N 59°54' E 010°44'0 0.0
2017-May-25 12:30N 59°54' E 010°44'0 0.0
2017-May-25 12:00N 59°54' E 010°44'0 0.0
2017-May-25 11:30N 59°54' E 010°44'0 0.0
2017-May-25 11:00N 59°54' E 010°44'0 0.0
2017-May-25 10:30N 59°54' E 010°44'0 0.0
2017-May-25 10:00N 59°54' E 010°44'0 0.0
2017-May-25 09:30N 59°54' E 010°44'0 0.0
2017-May-25 09:00N 59°54' E 010°44'0 0.0
2017-May-25 08:30N 59°54' E 010°44'0 0.0
2017-May-25 08:00N 59°54' E 010°44'0 0.0
2017-May-25 07:30N 59°54' E 010°44'0 0.0
2017-May-25 07:00N 59°54' E 010°44'0 0.0
2017-May-25 06:30N 59°54' E 010°44'0 0.0
2017-May-25 06:00N 59°54' E 010°44'0 0.0
2017-May-25 05:30N 59°54' E 010°44'2 3.7
2017-May-25 05:00N 59°53' E 010°41'613.2
2017-May-25 04:31N 59°48' E 010°35'713.2
2017-May-25 04:01N 59°41' E 010°36'611.9
2017-May-25 03:30N 59°35' E 010°38'613.0
2017-May-25 03:00N 59°29' E 010°35'917.2
2017-May-25 02:30N 59°20' E 010°36'917.3
2017-May-25 02:00N 59°12' E 010°39'715.0
2017-May-25 01:30N 59°05' E 010°35'510.0
2017-May-25 01:00N 58°60' E 010°34'510.9
2017-May-25 00:30N 58°56' E 010°27'611.1
2017-May-25 00:00N 58°52' E 010°20'611.5
2017-May-24 23:30N 58°47' E 010°13'611.2
2017-May-24 23:00N 58°43' E 010°06'510.9
2017-May-24 22:30N 58°39' E 009°60'1810.6
2017-May-24 20:47N 58°25' E 009°37'310.3
2017-May-24 20:30N 58°23' E 009°32'610.5
2017-May-24 19:56N 58°20' E 009°22'510.5
2017-May-24 19:29N 58°18' E 009°14'511.3
2017-May-24 19:00N 58°15' E 009°05'511.0
2017-May-24 18:30N 58°13' E 008°56'510.6
2017-May-24 18:00N 58°10' E 008°47'510.4
2017-May-24 17:30N 58°08' E 008°38'510.4
2017-May-24 17:00N 58°05' E 008°30'510.2
2017-May-24 16:30N 58°03' E 008°21'510.2
2017-May-24 15:59N 58°03' E 008°11'5 9.6
2017-May-24 15:30N 58°05' E 008°03'4 7.3
2017-May-24 15:00N 58°08' E 007°59'0 0.2
2017-May-24 14:30N 58°08' E 007°60'0 0.0
2017-May-24 13:30N 58°08' E 007°60'0 0.0
2017-May-24 13:00N 58°08' E 007°60'0 0.0
2017-May-24 12:30N 58°08' E 007°60'0 0.0
2017-May-24 12:00N 58°08' E 007°60'0 0.0
2017-May-24 11:30N 58°08' E 007°60'0 0.0
2017-May-24 11:00N 58°08' E 007°60'0 0.0
2017-May-24 10:30N 58°08' E 007°60'0 0.0
2017-May-24 10:00N 58°08' E 007°60'0 0.0
2017-May-24 09:30N 58°08' E 007°60'0 0.0
2017-May-24 09:00N 58°08' E 007°60'0 0.0
2017-May-24 08:30N 58°08' E 007°60'0 0.0
2017-May-24 08:00N 58°08' E 007°60'0 0.0
2017-May-24 07:30N 58°08' E 007°60'0 0.0
2017-May-24 07:00N 58°08' E 007°60'0 0.0
2017-May-24 06:30N 58°08' E 007°60'0 0.0
2017-May-24 06:00N 58°08' E 007°60'0 0.0
2017-May-24 05:30N 58°08' E 007°60'1 1.2
2017-May-24 04:59N 58°08' E 007°60'510.8
2017-May-24 04:30N 58°03' E 008°05'510.2
2017-May-24 04:00N 58°00' E 007°57'612.7
2017-May-24 03:30N 57°56' E 007°48'612.5
2017-May-24 03:00N 57°53' E 007°38'612.0
2017-May-24 02:30N 57°52' E 007°27'612.2
2017-May-24 02:00N 57°52' E 007°15'612.3
2017-May-24 01:30N 57°52' E 007°04'612.4
2017-May-24 01:00N 57°53' E 006°52'612.5
2017-May-24 00:29N 57°53' E 006°40'612.1
2017-May-24 00:00N 57°54' E 006°29'612.4
2017-May-23 23:30N 57°54' E 006°17'612.1
2017-May-23 22:59N 57°57' E 006°07'612.8
2017-May-23 22:30N 58°01' E 005°58'1412.4
2017-May-23 21:23N 58°10' E 005°38'512.4
2017-May-23 21:00N 58°13' E 005°31'1312.1
2017-May-23 19:57N 58°21' E 005°14'812.4
2017-May-23 19:19N 58°29' E 005°15'412.8
2017-May-23 19:00N 58°33' E 005°15'612.5
2017-May-23 18:30N 58°40' E 005°16'612.7
2017-May-23 18:01N 58°46' E 005°17'612.5
2017-May-23 17:30N 58°50' E 005°26'510.3
2017-May-23 17:00N 58°54' E 005°32'815.6
2017-May-23 16:30N 59°02' E 005°33'5 9.7
2017-May-23 16:00N 59°00' E 005°41'2 3.5
2017-May-23 15:29N 58°59' E 005°43'0 0.0
2017-May-23 14:59N 58°59' E 005°43'0 0.0
2017-May-23 14:29N 58°59' E 005°43'0 0.0
2017-May-23 13:29N 58°59' E 005°43'0 0.0
2017-May-23 12:59N 58°59' E 005°43'0 0.0
2017-May-23 12:29N 58°59' E 005°43'0 0.0
2017-May-23 11:59N 58°59' E 005°43'0 0.0
2017-May-23 11:29N 58°59' E 005°43'0 0.0
2017-May-23 10:59N 58°59' E 005°43'0 0.0
2017-May-23 10:29N 58°59' E 005°43'0 0.0
2017-May-23 09:59N 58°59' E 005°43'0 0.0
2017-May-23 09:29N 58°59' E 005°43'0 0.0
2017-May-23 08:59N 58°59' E 005°43'0 0.0
2017-May-23 08:29N 58°59' E 005°43'0 0.0
2017-May-23 07:59N 58°59' E 005°43'0 0.0
2017-May-23 07:30N 58°59' E 005°43'1 2.2
2017-May-23 07:01N 58°59' E 005°42'5 9.7
2017-May-23 06:30N 59°03' E 005°35'714.0
2017-May-23 06:00N 59°07' E 005°24'714.8
2017-May-23 05:31N 59°07' E 005°10'714.9
2017-May-23 05:01N 59°09' E 004°56'816.0
2017-May-23 04:30N 59°16' E 004°48'6615.9
2017-May-23 00:19N 60°21' E 004°26'516.6
2017-May-23 00:00N 60°26' E 004°25'816.0
2017-May-22 23:30N 60°34' E 004°24'815.8
2017-May-22 23:00N 60°42' E 004°23'714.8
2017-May-22 22:30N 60°50' E 004°25'815.5
2017-May-22 22:00N 60°53' E 004°40'714.6
2017-May-22 21:30N 60°59' E 004°45'817.0
2017-May-22 21:00N 61°04' E 004°60'816.2
2017-May-22 20:30N 61°05' E 005°17'815.9
2017-May-22 19:59N 61°06' E 005°33'917.6
2017-May-22 19:30N 61°08' E 005°50'917.6
2017-May-22 18:59N 61°08' E 006°09'917.5
2017-May-22 18:30N 61°06' E 006°26'816.5
2017-May-22 18:00N 61°11' E 006°39'917.0
2017-May-22 17:30N 61°07' E 006°55'916.9
2017-May-22 17:00N 60°60' E 007°04'611.6
2017-May-22 16:30N 60°55' E 007°10'3 5.6
2017-May-22 16:00N 60°52' E 007°08'0 0.2
2017-May-22 15:30N 60°52' E 007°08'0 0.1
2017-May-22 15:00N 60°52' E 007°08'0 0.0
2017-May-22 14:00N 60°52' E 007°08'0 0.0
2017-May-22 13:30N 60°52' E 007°08'0 0.0
2017-May-22 13:00N 60°52' E 007°08'0 0.0
2017-May-22 12:30N 60°52' E 007°08'0 0.0
2017-May-22 12:00N 60°52' E 007°08'0 0.0
2017-May-22 11:30N 60°52' E 007°08'0 0.0
2017-May-22 11:00N 60°52' E 007°08'0 0.0
2017-May-22 10:30N 60°52' E 007°08'0 0.0
2017-May-22 10:00N 60°52' E 007°08'0 0.1
2017-May-22 09:30N 60°52' E 007°08'0 0.0
2017-May-22 09:00N 60°52' E 007°08'0 0.0
2017-May-22 08:30N 60°52' E 007°08'0 0.0
2017-May-22 08:00N 60°52' E 007°08'0 0.0
2017-May-22 07:30N 60°52' E 007°08'0 0.0
2017-May-22 07:00N 60°52' E 007°08'0 0.0
2017-May-22 06:30N 60°52' E 007°08'0 0.1
2017-May-22 06:00N 60°52' E 007°08'0 0.1
2017-May-22 05:30N 60°52' E 007°08'0 0.1
2017-May-22 05:00N 60°52' E 007°08'4 8.8
2017-May-22 04:30N 60°57' E 007°10'612.5
2017-May-22 04:00N 61°02' E 007°02'815.3
2017-May-22 03:30N 61°08' E 006°54'815.5
2017-May-22 03:00N 61°11' E 006°39'715.1
2017-May-22 02:30N 61°06' E 006°27'816.8
2017-May-22 02:00N 61°08' E 006°10'917.0
2017-May-22 01:30N 61°08' E 005°52'817.1
2017-May-22 01:00N 61°06' E 005°36'816.2
2017-May-22 00:30N 61°04' E 005°19'816.5
2017-May-22 00:00N 61°04' E 005°02'918.6
2017-May-21 23:30N 60°59' E 004°46'815.9
2017-May-21 23:00N 60°52' E 004°39'714.0
2017-May-21 22:30N 60°48' E 004°28'1019.0
2017-May-21 22:00N 60°38' E 004°24'11218.3
2017-May-21 15:52N 58°46' E 004°18'718.0
2017-May-21 15:30N 58°40' E 004°22'918.1
2017-May-21 15:00N 58°32' E 004°27'1118.4
2017-May-21 14:26N 58°21' E 004°32'31317.7
2017-May-20 20:47N 53°09' E 004°28'918.4
2017-May-20 20:17N 53°00' E 004°21'518.1
2017-May-20 20:00N 52°56' E 004°17'918.0
2017-May-20 19:30N 52°48' E 004°09'917.6
2017-May-20 19:00N 52°41' E 004°02'917.3
2017-May-20 18:30N 52°33' E 003°56'917.3
2017-May-20 18:00N 52°24' E 003°53'917.0
2017-May-20 17:30N 52°16' E 003°53'817.1
2017-May-20 17:00N 52°08' E 003°55'611.4
2017-May-20 16:30N 52°02' E 003°55'714.5
2017-May-20 16:00N 51°59' E 004°06'611.6
2017-May-20 15:30N 51°55' E 004°14'5 9.1
2017-May-20 15:00N 51°54' E 004°21'5 5.3
2017-May-20 14:00N 51°54' E 004°29'0 0.0
2017-May-20 13:30N 51°54' E 004°29'0 0.0
2017-May-20 12:59N 51°54' E 004°29'0 0.0
2017-May-20 12:30N 51°54' E 004°29'0 0.0
2017-May-20 12:00N 51°54' E 004°29'0 0.0
2017-May-20 11:30N 51°54' E 004°29'0 0.0
2017-May-20 11:00N 51°54' E 004°29'0 0.0
2017-May-20 10:30N 51°54' E 004°29'0 0.0
2017-May-20 10:00N 51°54' E 004°29'0 0.0
2017-May-20 09:30N 51°54' E 004°29'0 0.0
2017-May-20 08:57N 51°54' E 004°29'0 0.0
2017-May-20 08:30N 51°54' E 004°29'0 0.0
2017-May-20 08:00N 51°54' E 004°29'0 0.1
2017-May-20 07:30N 51°54' E 004°29'0 0.1
2017-May-20 07:00N 51°54' E 004°29'0 0.0
2017-May-20 06:30N 51°54' E 004°29'0 0.0
2017-May-20 06:00N 51°54' E 004°29'0 0.0
2017-May-20 05:29N 51°54' E 004°29'0 0.0
2017-May-20 04:59N 51°54' E 004°29'0 0.5
2017-May-20 04:31N 51°54' E 004°29'3 5.9
2017-May-20 04:01N 51°54' E 004°24'4 8.1
2017-May-20 03:30N 51°54' E 004°17'510.3
2017-May-20 03:00N 51°57' E 004°11'612.7
2017-May-20 02:31N 51°60' E 004°01'815.1
2017-May-20 02:01N 52°01' E 003°49'612.0
2017-May-20 01:30N 52°07' E 003°46'815.7
2017-May-20 01:00N 52°15' E 003°46'816.0
2017-May-20 00:30N 52°23' E 003°49'815.9
2017-May-20 00:00N 52°30' E 003°52'816.0
2017-May-19 23:30N 52°38' E 003°54'816.0
2017-May-19 23:00N 52°46' E 003°56'1115.7
2017-May-19 22:17N 52°57' E 004°00'515.6
2017-May-19 21:58N 53°00' E 004°07'  

Dump ship's entire track history